Time;durP1;ratioP1;P1;durP2;ratioP2;P2;SDS_P1;SDS_P2;PMS_P1;PMS_P2;Temp;Humidity;BMP_temperature;BMP_pressure;BME280_temperature;BME280_humidity;BME280_pressure;Samples;Min_cycle;Max_cycle;Signal;HPM_P1;HPM_P2
2022/09/22 00:01:17;;;;;;;15.32;9.30;;;;;;;;;;5008725;28;20121;-70
2022/09/22 00:03:45;;;;;;;15.63;10.80;;;;;;;;;;5007775;28;20026;-72
2022/09/22 00:06:15;;;;;;;16.85;11.35;;;;;;;;;;4991666;28;20034;-76
2022/09/22 00:08:42;;;;;;;17.17;11.95;;;;;;;;;;4990875;28;20038;-76
2022/09/22 00:11:15;;;;;;;17.50;11.90;;;;;;;;;;5008401;28;20486;-76
2022/09/22 00:13:42;;;;;;;18.45;11.90;;;;;;;;;;4973935;28;20040;-71
2022/09/22 00:16:08;;;;;;;17.67;11.93;;;;;;;;;;5007775;28;20083;-71
2022/09/22 00:18:35;;;;;;;17.05;11.77;;;;;;;;;;5007481;28;20049;-71
2022/09/22 00:21:13;;;;;;;17.23;12.70;;;;;;;;;;5007557;28;20014;-71
2022/09/22 00:23:40;;;;;;;17.35;12.05;;;;;;;;;;5007551;28;20037;-71
2022/09/22 00:26:07;;;;;;;19.33;11.85;;;;;;;;;;5007739;28;20022;-71
2022/09/22 00:28:33;;;;;;;17.52;12.43;;;;;;;;;;5006222;28;20041;-71
2022/09/22 00:31:03;;;;;;;16.20;11.23;;;;;;;;;;5007554;28;20054;-71
2022/09/22 00:33:28;;;;;;;18.38;11.75;;;;;;;;;;4989565;28;20030;-71
2022/09/22 00:35:57;;;;;;;18.80;13.38;;;;;;;;;;5007246;28;20156;-71
2022/09/22 00:38:23;;;;;;;16.50;12.17;;;;;;;;;;5007421;28;20029;-71
2022/09/22 00:40:49;;;;;;;14.00;10.70;;;;;;;;;;5007590;28;20856;-71
2022/09/22 00:43:20;;;;;;;21.60;14.20;;;;;;;;;;4989781;28;20030;-70
2022/09/22 00:45:50;;;;;;;19.10;13.35;;;;;;;;;;5007098;28;20544;-71
2022/09/22 00:48:18;;;;;;;19.08;12.70;;;;;;;;;;4989424;28;20061;-71
2022/09/22 00:50:45;;;;;;;18.67;12.45;;;;;;;;;;5007824;28;20053;-71
2022/09/22 00:53:14;;;;;;;22.52;13.40;;;;;;;;;;4989597;28;20042;-75
2022/09/22 00:55:47;;;;;;;17.90;12.35;;;;;;;;;;5007567;28;20109;-70
2022/09/22 00:58:18;;;;;;;17.95;13.43;;;;;;;;;;5007112;28;20087;-70
2022/09/22 01:00:43;;;;;;;20.33;13.73;;;;;;;;;;5007149;28;20490;-69
2022/09/22 01:03:14;;;;;;;21.88;13.30;;;;;;;;;;5007106;28;20556;-70
2022/09/22 01:05:41;;;;;;;17.58;12.02;;;;;;;;;;5007023;28;20042;-70
2022/09/22 01:08:07;;;;;;;19.67;13.25;;;;;;;;;;5006653;28;20051;-70
2022/09/22 01:10:32;;;;;;;18.95;12.93;;;;;;;;;;5006941;28;20532;-70
2022/09/22 01:13:10;;;;;;;17.90;12.95;;;;;;;;;;5006550;28;20030;-69
2022/09/22 01:15:41;;;;;;;18.33;12.43;;;;;;;;;;5006653;28;20501;-69
2022/09/22 01:18:07;;;;;;;16.40;11.40;;;;;;;;;;5006571;28;20075;-70
2022/09/22 01:20:41;;;;;;;18.08;12.30;;;;;;;;;;5006872;28;20030;-69
2022/09/22 01:23:19;;;;;;;18.48;12.02;;;;;;;;;;5006764;28;20065;-70
2022/09/22 01:25:53;;;;;;;21.67;13.00;;;;;;;;;;5011291;28;20120;-69
2022/09/22 01:28:37;;;;;;;17.30;10.70;;;;;;;;;;4995803;28;20112;-74
2022/09/22 01:31:16;;;;;;;19.30;11.95;;;;;;;;;;5013225;28;20041;-71
2022/09/22 01:33:41;;;;;;;19.17;10.88;;;;;;;;;;4995504;28;20030;-71
2022/09/22 01:36:13;;;;;;;18.55;11.52;;;;;;;;;;5013340;28;20029;-71
2022/09/22 01:38:45;;;;;;;19.50;11.75;;;;;;;;;;4995426;28;20038;-71
2022/09/22 01:41:35;;;;;;;16.42;10.52;;;;;;;;;;4978865;28;20064;-71
2022/09/22 01:44:02;;;;;;;22.63;11.07;;;;;;;;;;4985161;28;20052;-71
2022/09/22 01:46:33;;;;;;;23.75;12.55;;;;;;;;;;5013413;28;20030;-70
2022/09/22 01:49:01;;;;;;;23.38;12.05;;;;;;;;;;5013057;28;20034;-70
2022/09/22 01:51:29;;;;;;;15.43;10.18;;;;;;;;;;5011935;28;20607;-75
2022/09/22 01:53:58;;;;;;;15.82;9.52;;;;;;;;;;5013778;28;20072;-75
2022/09/22 01:56:25;;;;;;;14.05;9.73;;;;;;;;;;5013447;28;20124;-70
2022/09/22 01:59:01;;;;;;;15.82;9.75;;;;;;;;;;5012661;28;20030;-70
2022/09/22 02:01:30;;;;;;;15.73;9.40;;;;;;;;;;5012753;28;20124;-70
2022/09/22 02:03:55;;;;;;;13.80;9.13;;;;;;;;;;5028021;28;20024;-70
2022/09/22 02:06:31;;;;;;;14.32;9.63;;;;;;;;;;5012851;28;20025;-70
2022/09/22 02:09:00;;;;;;;13.13;8.77;;;;;;;;;;5013114;28;20457;-72
2022/09/22 02:11:25;;;;;;;14.13;9.13;;;;;;;;;;5027683;28;20048;-72
2022/09/22 02:13:51;;;;;;;13.25;9.18;;;;;;;;;;5012898;28;20034;-72
2022/09/22 02:16:18;;;;;;;18.35;9.75;;;;;;;;;;5013237;28;20462;-75
2022/09/22 02:18:44;;;;;;;15.65;8.80;;;;;;;;;;5013726;28;20148;-76
2022/09/22 02:21:09;;;;;;;13.52;9.07;;;;;;;;;;5013292;28;20100;-76
2022/09/22 02:23:35;;;;;;;15.98;9.32;;;;;;;;;;5013367;28;20466;-76
2022/09/22 02:26:01;;;;;;;13.68;9.05;;;;;;;;;;5013414;28;20037;-76
2022/09/22 02:28:27;;;;;;;16.00;9.23;;;;;;;;;;5013785;28;20021;-76
2022/09/22 02:30:53;;;;;;;13.27;8.43;;;;;;;;;;5013734;28;20028;-77
2022/09/22 02:33:21;;;;;;;16.50;9.55;;;;;;;;;;5012795;28;20155;-76
2022/09/22 02:35:50;;;;;;;15.77;9.35;;;;;;;;;;5012572;28;20026;-76
2022/09/22 02:38:19;;;;;;;14.38;9.43;;;;;;;;;;5009920;28;20173;-76
2022/09/22 02:40:47;;;;;;;14.50;8.48;;;;;;;;;;5010301;28;20038;-76
2022/09/22 02:43:20;;;;;;;11.45;8.70;;;;;;;;;;5025393;28;20041;-76
2022/09/22 02:46:07;;;;;;;14.32;9.52;;;;;;;;;;5010271;28;20038;-76
2022/09/22 02:48:39;;;;;;;14.32;9.10;;;;;;;;;;4991788;28;20180;-71
2022/09/22 02:51:06;;;;;;;13.48;9.57;;;;;;;;;;5008654;28;20464;-71
2022/09/22 02:53:32;;;;;;;14.77;8.63;;;;;;;;;;4991392;28;20033;-71
2022/09/22 02:55:57;;;;;;;12.35;9.15;;;;;;;;;;5024372;28;20436;-71
2022/09/22 02:58:23;;;;;;;12.88;8.30;;;;;;;;;;5009331;28;20026;-71
2022/09/22 03:00:48;;;;;;;14.23;8.05;;;;;;;;;;5008456;28;20072;-76
2022/09/22 03:03:14;;;;;;;11.48;7.78;;;;;;;;;;5009720;28;20033;-76
2022/09/22 03:05:39;;;;;;;10.63;7.57;;;;;;;;;;5011321;28;20022;-76
2022/09/22 03:08:05;;;;;;;12.50;8.68;;;;;;;;;;5012665;28;20029;-76
2022/09/22 03:10:31;;;;;;;12.38;8.25;;;;;;;;;;5011460;28;20029;-76
2022/09/22 03:12:57;;;;;;;10.60;7.78;;;;;;;;;;5009426;28;20033;-75
2022/09/22 03:15:23;;;;;;;11.90;8.05;;;;;;;;;;5024589;28;20174;-76
2022/09/22 03:17:49;;;;;;;16.33;9.18;;;;;;;;;;5009378;28;20025;-75
2022/09/22 03:20:15;;;;;;;13.32;8.57;;;;;;;;;;4992071;28;20049;-75
2022/09/22 03:22:40;;;;;;;13.13;8.48;;;;;;;;;;5009215;28;20075;-75
2022/09/22 03:25:07;;;;;;;13.73;8.60;;;;;;;;;;5009656;28;20030;-75
2022/09/22 03:27:32;;;;;;;12.48;8.57;;;;;;;;;;5009055;28;20417;-75
2022/09/22 03:29:58;;;;;;;14.05;8.85;;;;;;;;;;5008961;28;20038;-75
2022/09/22 03:32:23;;;;;;;13.85;8.88;;;;;;;;;;5009273;28;20057;-75
2022/09/22 03:34:49;;;;;;;12.68;8.70;;;;;;;;;;5009091;28;20500;-75
2022/09/22 03:37:15;;;;;;;12.55;8.63;;;;;;;;;;5023758;28;20029;-76
2022/09/22 03:39:41;;;;;;;11.43;8.32;;;;;;;;;;5008751;28;20041;-75
2022/09/22 03:42:06;;;;;;;12.95;9.05;;;;;;;;;;5024535;28;20026;-75
2022/09/22 03:44:33;;;;;;;12.60;8.45;;;;;;;;;;4991838;28;20044;-74
2022/09/22 03:46:59;;;;;;;12.77;7.90;;;;;;;;;;5009203;28;20107;-74
2022/09/22 03:49:24;;;;;;;12.55;8.25;;;;;;;;;;4991037;28;20046;-75
2022/09/22 03:51:50;;;;;;;13.40;8.73;;;;;;;;;;5008637;28;20363;-75
2022/09/22 03:54:15;;;;;;;12.43;8.07;;;;;;;;;;5008671;28;20068;-76
2022/09/22 03:56:41;;;;;;;11.27;8.13;;;;;;;;;;5008475;28;20026;-76
2022/09/22 03:59:06;;;;;;;9.77;7.47;;;;;;;;;;5007777;28;20056;-75
2022/09/22 04:01:32;;;;;;;9.75;7.80;;;;;;;;;;5008323;28;20068;-75
2022/09/22 04:03:58;;;;;;;9.60;7.07;;;;;;;;;;4991532;28;20041;-70
2022/09/22 04:06:23;;;;;;;12.35;8.15;;;;;;;;;;5013908;28;20025;-74
2022/09/22 04:08:49;;;;;;;14.23;8.60;;;;;;;;;;5015119;28;20026;-75
2022/09/22 04:11:14;;;;;;;10.60;7.93;;;;;;;;;;5015353;28;20032;-75
2022/09/22 04:13:39;;;;;;;10.52;7.68;;;;;;;;;;5015233;28;20070;-75
2022/09/22 04:16:08;;;;;;;9.98;8.00;;;;;;;;;;5015337;28;20037;-75
2022/09/22 04:18:35;;;;;;;11.25;7.90;;;;;;;;;;5015188;28;20401;-75
2022/09/22 04:21:02;;;;;;;11.77;7.88;;;;;;;;;;4997098;28;20014;-75
2022/09/22 04:23:27;;;;;;;11.48;8.40;;;;;;;;;;5013210;28;20030;-75
2022/09/22 04:25:52;;;;;;;11.77;8.43;;;;;;;;;;4996730;28;20099;-75
2022/09/22 04:28:18;;;;;;;10.48;7.70;;;;;;;;;;5014301;28;20033;-76
2022/09/22 04:30:43;;;;;;;13.45;8.98;;;;;;;;;;5014646;28;20018;-75
2022/09/22 04:33:10;;;;;;;12.88;8.85;;;;;;;;;;5014266;28;20033;-75
2022/09/22 04:35:36;;;;;;;9.50;6.60;;;;;;;;;;4996787;28;20044;-75
2022/09/22 04:38:01;;;;;;;10.23;7.25;;;;;;;;;;5014348;28;20026;-75
2022/09/22 04:40:27;;;;;;;12.50;8.07;;;;;;;;;;5014510;28;20021;-75
2022/09/22 04:42:52;;;;;;;13.68;8.23;;;;;;;;;;5029133;28;20421;-75
2022/09/22 04:45:18;;;;;;;11.43;8.43;;;;;;;;;;5013875;28;20018;-71
2022/09/22 04:47:44;;;;;;;14.98;9.05;;;;;;;;;;4994524;28;20479;-71
2022/09/22 04:50:10;;;;;;;14.88;9.43;;;;;;;;;;5012629;28;20040;-71
2022/09/22 04:52:36;;;;;;;14.25;8.73;;;;;;;;;;5012965;28;20030;-71
2022/09/22 04:55:01;;;;;;;11.57;8.20;;;;;;;;;;5012964;28;20018;-71
2022/09/22 04:57:26;;;;;;;12.52;8.07;;;;;;;;;;5012806;28;20095;-71
2022/09/22 04:59:52;;;;;;;10.13;7.75;;;;;;;;;;5011854;28;20010;-71
2022/09/22 05:02:17;;;;;;;12.13;7.85;;;;;;;;;;5013428;28;20435;-71
2022/09/22 05:04:43;;;;;;;11.48;8.07;;;;;;;;;;5013836;28;20018;-71
2022/09/22 05:07:08;;;;;;;14.52;8.57;;;;;;;;;;4995880;28;20026;-71
2022/09/22 05:09:34;;;;;;;11.75;8.10;;;;;;;;;;5013295;28;20017;-70
2022/09/22 05:12:00;;;;;;;8.90;7.15;;;;;;;;;;5013419;28;20041;-70
2022/09/22 05:14:25;;;;;;;11.60;7.32;;;;;;;;;;5028420;28;20018;-70
2022/09/22 05:16:51;;;;;;;11.30;7.18;;;;;;;;;;5013200;28;20041;-71
2022/09/22 05:19:17;;;;;;;8.05;6.45;;;;;;;;;;5013052;28;20024;-71
2022/09/22 05:21:43;;;;;;;8.60;6.30;;;;;;;;;;5028770;28;20485;-74
2022/09/22 05:24:08;;;;;;;8.27;6.13;;;;;;;;;;5013137;28;20014;-76
2022/09/22 05:26:34;;;;;;;9.48;6.55;;;;;;;;;;5027725;28;20588;-75
2022/09/22 05:28:59;;;;;;;7.82;5.47;;;;;;;;;;5012566;28;20022;-75
2022/09/22 05:31:25;;;;;;;9.00;6.05;;;;;;;;;;5012347;28;20121;-75
2022/09/22 05:33:50;;;;;;;7.35;5.75;;;;;;;;;;5012366;28;20033;-75
2022/09/22 05:36:15;;;;;;;7.30;5.72;;;;;;;;;;5012437;28;20433;-76
2022/09/22 05:38:41;;;;;;;8.55;5.97;;;;;;;;;;5012457;28;20022;-76
2022/09/22 05:41:07;;;;;;;9.90;5.82;;;;;;;;;;5012434;28;20413;-75
2022/09/22 05:43:32;;;;;;;8.05;5.50;;;;;;;;;;5012512;28;20117;-71
2022/09/22 05:45:57;;;;;;;8.35;5.88;;;;;;;;;;5012158;28;20025;-71
2022/09/22 05:48:23;;;;;;;6.97;5.63;;;;;;;;;;5013262;28;20045;-71
2022/09/22 05:50:48;;;;;;;9.35;6.15;;;;;;;;;;5013438;28;20371;-71
2022/09/22 05:53:14;;;;;;;8.02;5.45;;;;;;;;;;5012733;28;20602;-71
2022/09/22 05:55:39;;;;;;;6.65;5.38;;;;;;;;;;5012634;28;20092;-71
2022/09/22 05:58:05;;;;;;;6.95;5.20;;;;;;;;;;5012007;28;20045;-71
2022/09/22 06:00:31;;;;;;;7.20;5.45;;;;;;;;;;5012282;28;20028;-71
2022/09/22 06:02:57;;;;;;;6.25;5.47;;;;;;;;;;4994866;28;20041;-71
2022/09/22 06:05:22;;;;;;;6.68;5.07;;;;;;;;;;4994854;28;20132;-71
2022/09/22 06:07:54;;;;;;;6.93;4.78;;;;;;;;;;5027464;28;20033;-71
2022/09/22 06:10:20;;;;;;;8.93;5.53;;;;;;;;;;5012538;28;20029;-71
2022/09/22 06:12:45;;;;;;;5.78;4.50;;;;;;;;;;5015353;28;20466;-71
2022/09/22 06:15:10;;;;;;;5.30;4.53;;;;;;;;;;5015326;28;20025;-71
2022/09/22 06:17:36;;;;;;;6.25;5.25;;;;;;;;;;5015469;28;20026;-71
2022/09/22 06:20:01;;;;;;;8.50;5.68;;;;;;;;;;5015844;28;20050;-71
2022/09/22 06:22:27;;;;;;;5.82;4.75;;;;;;;;;;5015771;28;20018;-71
2022/09/22 06:24:52;;;;;;;7.13;5.30;;;;;;;;;;5015686;28;20034;-71
2022/09/22 06:27:17;;;;;;;10.35;5.78;;;;;;;;;;5030849;28;20076;-71
2022/09/22 06:29:43;;;;;;;5.72;4.65;;;;;;;;;;5015659;28;20080;-71
2022/09/22 06:32:09;;;;;;;5.55;5.00;;;;;;;;;;5014986;28;20427;-71
2022/09/22 06:34:34;;;;;;;6.20;4.40;;;;;;;;;;5016549;28;20571;-71
2022/09/22 06:37:01;;;;;;;6.50;4.82;;;;;;;;;;5016550;28;20032;-70
2022/09/22 06:39:26;;;;;;;4.90;4.22;;;;;;;;;;5016529;28;20470;-71
2022/09/22 06:41:54;;;;;;;5.85;4.15;;;;;;;;;;5016749;28;20021;-71
2022/09/22 06:44:20;;;;;;;4.82;4.22;;;;;;;;;;5016441;28;20025;-71
2022/09/22 06:46:45;;;;;;;4.38;3.80;;;;;;;;;;5016070;28;20422;-71
2022/09/22 06:49:12;;;;;;;5.78;4.30;;;;;;;;;;5015005;28;20042;-71
2022/09/22 06:51:38;;;;;;;4.55;4.07;;;;;;;;;;5016352;28;20097;-71
2022/09/22 06:54:04;;;;;;;15.77;4.50;;;;;;;;;;4998916;28;20371;-71
2022/09/22 06:56:34;;;;;;;6.80;4.50;;;;;;;;;;5016262;28;20026;-71
2022/09/22 06:58:59;;;;;;;11.13;4.63;;;;;;;;;;5016297;28;20022;-70
2022/09/22 07:01:28;;;;;;;10.88;4.60;;;;;;;;;;5016362;28;20100;-71
2022/09/22 07:03:53;;;;;;;19.17;5.32;;;;;;;;;;4998539;28;20108;-71
2022/09/22 07:06:19;;;;;;;6.82;4.07;;;;;;;;;;5016018;28;20108;-71
2022/09/22 07:08:46;;;;;;;13.27;4.78;;;;;;;;;;5016023;28;20394;-71
2022/09/22 07:11:13;;;;;;;12.88;4.50;;;;;;;;;;5015946;28;20018;-71
2022/09/22 07:13:40;;;;;;;11.95;3.60;;;;;;;;;;5016018;28;20030;-71
2022/09/22 07:16:07;;;;;;;21.10;5.47;;;;;;;;;;5015877;28;20553;-71
2022/09/22 07:18:34;;;;;;;4.65;4.18;;;;;;;;;;5015818;28;20469;-71
2022/09/22 07:21:00;;;;;;;4.35;3.35;;;;;;;;;;5015753;28;20029;-71
2022/09/22 07:23:25;;;;;;;4.68;3.20;;;;;;;;;;5014537;28;20069;-71
2022/09/22 07:25:55;;;;;;;7.05;3.70;;;;;;;;;;5015620;28;20056;-71
2022/09/22 07:28:21;;;;;;;3.70;3.27;;;;;;;;;;4998058;28;20389;-71
2022/09/22 07:30:46;;;;;;;4.20;3.47;;;;;;;;;;4997969;28;20367;-71
2022/09/22 07:33:12;;;;;;;4.63;3.45;;;;;;;;;;4998086;28;20088;-71
2022/09/22 07:35:37;;;;;;;14.18;4.07;;;;;;;;;;5015447;28;20076;-71
2022/09/22 07:38:03;;;;;;;11.32;3.45;;;;;;;;;;4997792;28;20030;-71
2022/09/22 07:40:29;;;;;;;5.22;3.03;;;;;;;;;;5015334;28;20071;-71
2022/09/22 07:42:54;;;;;;;9.40;3.45;;;;;;;;;;5015304;28;20122;-71
2022/09/22 07:45:22;;;;;;;5.03;3.47;;;;;;;;;;5014839;28;20025;-71
2022/09/22 07:50:32;;;;;;;3.88;3.38;;;;;;;;;;4996564;28;20037;-71
2022/09/22 07:52:57;;;;;;;3.78;3.40;;;;;;;;;;5014086;28;20025;-71
2022/09/22 07:55:23;;;;;;;3.75;3.35;;;;;;;;;;5014047;28;20104;-71
2022/09/22 07:57:53;;;;;;;5.82;3.85;;;;;;;;;;5013660;28;20018;-71
2022/09/22 08:00:19;;;;;;;4.30;3.63;;;;;;;;;;5013919;28;20037;-71
2022/09/22 08:02:49;;;;;;;5.05;3.55;;;;;;;;;;5013842;28;20023;-71
2022/09/22 08:05:15;;;;;;;6.85;4.40;;;;;;;;;;5012619;28;20033;-71
2022/09/22 08:07:42;;;;;;;5.80;4.40;;;;;;;;;;5013754;28;20363;-71
2022/09/22 08:10:09;;;;;;;4.45;3.45;;;;;;;;;;4995932;28;20051;-71
2022/09/22 08:12:36;;;;;;;10.55;4.35;;;;;;;;;;5013443;28;20493;-71
2022/09/22 08:15:01;;;;;;;5.40;3.90;;;;;;;;;;4996108;28;20080;-71
2022/09/22 08:17:26;;;;;;;15.23;4.57;;;;;;;;;;5013491;28;20014;-71
2022/09/22 08:19:52;;;;;;;5.78;4.13;;;;;;;;;;5013659;28;20360;-71
2022/09/22 08:22:17;;;;;;;9.93;4.40;;;;;;;;;;5013537;28;20022;-71
2022/09/22 08:24:43;;;;;;;3.85;3.50;;;;;;;;;;5013489;28;20034;-71
2022/09/22 08:27:09;;;;;;;4.38;3.40;;;;;;;;;;5013465;28;20022;-71
2022/09/22 08:29:34;;;;;;;3.83;3.42;;;;;;;;;;5013479;28;20596;-71
2022/09/22 08:31:59;;;;;;;4.28;3.80;;;;;;;;;;5013395;28;20022;-71
2022/09/22 08:34:25;;;;;;;4.75;4.05;;;;;;;;;;5013258;28;20080;-71
2022/09/22 08:36:50;;;;;;;4.57;3.95;;;;;;;;;;5013265;28;20026;-71
2022/09/22 08:39:16;;;;;;;5.70;3.83;;;;;;;;;;4995909;28;20021;-71
2022/09/22 08:41:58;;;;;;;7.72;3.58;;;;;;;;;;5012679;28;20470;-71
2022/09/22 08:44:25;;;;;;;9.02;3.90;;;;;;;;;;5013264;28;20029;-71
2022/09/22 08:46:51;;;;;;;6.55;4.00;;;;;;;;;;5012963;28;20058;-71
2022/09/22 08:52:24;;;;;;;3.70;3.25;;;;;;;;;;5013123;28;20030;-71
2022/09/22 08:54:50;;;;;;;3.72;3.05;;;;;;;;;;5002292;28;20038;-71
2022/09/22 08:57:20;;;;;;;4.82;3.55;;;;;;;;;;5013884;28;20030;-71
2022/09/22 08:59:52;;;;;;;5.05;3.58;;;;;;;;;;5013947;28;20069;-70
2022/09/22 09:02:33;;;;;;;4.65;3.30;;;;;;;;;;4995515;28;20033;-71
2022/09/22 09:05:17;;;;;;;3.90;3.47;;;;;;;;;;4995680;28;20030;-70
2022/09/22 09:07:45;;;;;;;5.00;3.75;;;;;;;;;;5012922;28;20030;-71
2022/09/22 09:10:14;;;;;;;6.53;4.53;;;;;;;;;;5012820;28;20018;-71
2022/09/22 09:12:48;;;;;;;4.20;3.80;;;;;;;;;;5013066;28;20030;-71
2022/09/22 09:15:17;;;;;;;4.60;3.40;;;;;;;;;;5012778;28;20386;-71
2022/09/22 09:17:44;;;;;;;14.93;3.78;;;;;;;;;;5012367;28;20489;-71
2022/09/22 09:20:13;;;;;;;4.43;3.60;;;;;;;;;;5013108;28;20374;-71
2022/09/22 09:22:40;;;;;;;5.00;3.15;;;;;;;;;;4994709;28;20485;-71
2022/09/22 09:25:16;;;;;;;3.20;2.90;;;;;;;;;;5012168;28;20069;-71
2022/09/22 09:27:43;;;;;;;5.55;3.30;;;;;;;;;;4995158;28;20092;-71
2022/09/22 09:30:18;;;;;;;3.72;3.03;;;;;;;;;;5012627;28;20026;-71
2022/09/22 09:33:00;;;;;;;4.85;3.80;;;;;;;;;;5012302;28;20390;-71
2022/09/22 09:35:42;;;;;;;5.05;3.47;;;;;;;;;;4995081;28;20038;-71
2022/09/22 09:38:10;;;;;;;5.35;4.10;;;;;;;;;;4994908;28;20385;-71
2022/09/22 09:40:36;;;;;;;3.97;3.58;;;;;;;;;;5012559;28;20025;-71
2022/09/22 09:43:03;;;;;;;4.07;3.35;;;;;;;;;;5012515;28;20021;-71
2022/09/22 09:45:33;;;;;;;5.82;4.00;;;;;;;;;;4995120;28;20021;-71
2022/09/22 09:48:06;;;;;;;4.00;3.47;;;;;;;;;;5016218;28;20050;-71
2022/09/22 09:50:32;;;;;;;5.47;3.80;;;;;;;;;;5016434;28;20109;-71
2022/09/22 09:52:58;;;;;;;4.47;3.60;;;;;;;;;;5016536;28;20022;-75
2022/09/22 09:55:24;;;;;;;5.32;4.40;;;;;;;;;;5016406;28;20059;-75
2022/09/22 09:58:04;;;;;;;3.85;3.55;;;;;;;;;;5016725;28;20036;-75
2022/09/22 10:00:30;;;;;;;4.85;4.30;;;;;;;;;;5016205;28;20022;-75
2022/09/22 10:03:01;;;;;;;5.32;3.92;;;;;;;;;;5016076;28;20021;-75
2022/09/22 10:05:27;;;;;;;4.50;3.45;;;;;;;;;;5015831;28;20034;-75
2022/09/22 10:07:57;;;;;;;3.92;2.80;;;;;;;;;;4998701;28;20030;-75
2022/09/22 10:10:28;;;;;;;3.07;2.77;;;;;;;;;;5016199;28;20064;-75
2022/09/22 10:13:03;;;;;;;2.80;2.55;;;;;;;;;;5015812;28;20057;-75
2022/09/22 10:15:29;;;;;;;3.72;3.35;;;;;;;;;;5016096;28;20037;-75
2022/09/22 10:17:54;;;;;;;3.63;2.80;;;;;;;;;;5015896;28;20025;-75
2022/09/22 10:20:25;;;;;;;3.80;3.50;;;;;;;;;;5015617;28;20096;-75
2022/09/22 10:22:51;;;;;;;;;;;;;;;;;;5016322;28;20030;-75
2022/09/22 10:25:21;;;;;;;5.78;3.85;;;;;;;;;;4999140;28;19955;-75
2022/09/22 10:28:13;;;;;;;3.88;3.58;;;;;;;;;;4982666;28;20034;-75
2022/09/22 10:30:42;;;;;;;3.67;3.35;;;;;;;;;;5013224;28;20042;-75
2022/09/22 10:33:10;;;;;;;3.20;3.00;;;;;;;;;;5016571;28;20108;-75
2022/09/22 10:35:35;;;;;;;3.70;3.40;;;;;;;;;;5015721;28;20041;-75
2022/09/22 10:38:08;;;;;;;3.53;3.28;;;;;;;;;;5015664;28;20382;-75
2022/09/22 10:40:36;;;;;;;3.50;3.20;;;;;;;;;;5015113;28;20071;-75
2022/09/22 10:43:03;;;;;;;3.58;3.28;;;;;;;;;;5015670;28;20018;-75
2022/09/22 10:45:49;;;;;;;3.80;3.50;;;;;;;;;;5015595;28;20036;-75
2022/09/22 10:48:28;;;;;;;4.93;3.60;;;;;;;;;;4998015;28;20065;-75
2022/09/22 10:51:00;;;;;;;4.32;3.33;;;;;;;;;;4997696;28;20034;-75
2022/09/22 10:53:31;;;;;;;3.25;2.97;;;;;;;;;;5015314;28;20042;-75
2022/09/22 10:56:04;;;;;;;3.95;3.47;;;;;;;;;;5015059;28;20122;-75
2022/09/22 10:58:35;;;;;;;3.28;2.97;;;;;;;;;;5013775;28;20034;-75
2022/09/22 11:01:12;;;;;;;2.95;2.75;;;;;;;;;;5015131;28;20030;-75
2022/09/22 11:03:46;;;;;;;2.92;2.72;;;;;;;;;;4997558;28;20026;-75
2022/09/22 11:12:41;;;;;;;2.83;2.55;;;;;;;;;;4981343;28;20478;-75
2022/09/22 11:15:10;;;;;;;2.88;2.65;;;;;;;;;;5014827;28;20026;-75
2022/09/22 11:17:39;;;;;;;2.33;2.13;;;;;;;;;;5014398;28;20034;-75
2022/09/22 11:20:22;;;;;;;5.32;3.25;;;;;;;;;;5014886;28;20128;-75
2022/09/22 11:22:51;;;;;;;3.95;2.80;;;;;;;;;;4997183;28;20033;-74
2022/09/22 11:25:20;;;;;;;3.65;2.47;;;;;;;;;;5014753;28;20096;-74
2022/09/22 11:27:54;;;;;;;2.75;2.55;;;;;;;;;;4997041;28;20478;-74
2022/09/22 11:30:21;;;;;;;2.17;2.03;;;;;;;;;;5014592;28;20025;-75
2022/09/22 11:32:53;;;;;;;2.60;2.40;;;;;;;;;;5014613;28;20018;-75
2022/09/22 11:35:25;;;;;;;2.03;1.92;;;;;;;;;;4997002;28;20034;-75
2022/09/22 11:37:51;;;;;;;2.72;2.53;;;;;;;;;;5014410;28;20029;-75
2022/09/22 11:40:31;;;;;;;2.65;2.45;;;;;;;;;;5014445;28;20022;-75
2022/09/22 11:43:12;;;;;;;3.83;2.35;;;;;;;;;;5014102;28;20040;-75
2022/09/22 11:45:37;;;;;;;;;;;;;;;;;;5015019;28;20367;-75
2022/09/22 11:48:09;;;;;;;2.23;2.03;;;;;;;;;;4996762;28;19925;-75
2022/09/22 11:50:42;;;;;;;2.33;2.13;;;;;;;;;;5014285;28;20280;-75
2022/09/22 11:53:21;;;;;;;2.50;2.30;;;;;;;;;;5014164;28;20488;-75
2022/09/22 11:55:55;;;;;;;2.90;2.60;;;;;;;;;;4979811;28;20441;-76
2022/09/22 11:58:24;;;;;;;2.85;2.65;;;;;;;;;;4996353;28;20397;-75
2022/09/22 12:01:03;;;;;;;2.78;2.55;;;;;;;;;;4996376;28;20508;-75
2022/09/22 12:03:34;;;;;;;3.05;2.85;;;;;;;;;;5013667;28;20060;-75
2022/09/22 12:05:59;;;;;;;;;;;;;;;;;;5014895;28;20030;-75
2022/09/22 12:08:28;;;;;;;2.42;2.22;;;;;;;;;;5017961;28;19916;-75
2022/09/22 12:10:54;;;;;;;2.67;2.15;;;;;;;;;;5018505;28;20029;-75
2022/09/22 12:13:21;;;;;;;2.53;1.90;;;;;;;;;;5016111;28;20421;-74
2022/09/22 12:15:58;;;;;;;2.50;2.00;;;;;;;;;;5014514;28;20199;-74
2022/09/22 12:18:27;;;;;;;2.50;2.30;;;;;;;;;;4997721;28;20136;-75
2022/09/22 12:20:55;;;;;;;2.47;2.28;;;;;;;;;;5014529;28;20045;-75
2022/09/22 12:23:21;;;;;;;2.45;2.25;;;;;;;;;;5014067;28;20030;-75
2022/09/22 12:25:49;;;;;;;2.67;2.35;;;;;;;;;;4980436;28;20037;-75
2022/09/22 12:28:16;;;;;;;2.92;2.70;;;;;;;;;;5013728;28;20030;-75
2022/09/22 12:30:59;;;;;;;2.63;2.17;;;;;;;;;;5013703;28;20080;-75
2022/09/22 12:33:26;;;;;;;2.38;2.17;;;;;;;;;;4996378;28;20042;-75
2022/09/22 12:35:52;;;;;;;2.80;2.28;;;;;;;;;;5013689;28;20018;-75
2022/09/22 12:38:19;;;;;;;2.53;2.33;;;;;;;;;;5013302;28;20473;-75
2022/09/22 12:40:46;;;;;;;2.75;2.55;;;;;;;;;;5013593;28;20025;-75
2022/09/22 12:43:15;;;;;;;2.40;2.20;;;;;;;;;;4995775;28;20029;-74
2022/09/22 12:45:41;;;;;;;2.45;2.08;;;;;;;;;;5013256;28;20038;-74
2022/09/22 12:48:15;;;;;;;2.20;2.10;;;;;;;;;;4995545;28;20048;-74
2022/09/22 12:50:41;;;;;;;2.05;1.95;;;;;;;;;;5013316;28;20485;-75
2022/09/22 12:53:12;;;;;;;4.10;2.10;;;;;;;;;;5013253;28;20037;-74
2022/09/22 12:55:37;;;;;;;;;;;;;;;;;;4996110;28;20084;-74
2022/09/22 12:58:23;;;;;;;2.40;2.30;;;;;;;;;;5013126;28;20312;-74
2022/09/22 13:00:52;;;;;;;2.22;2.00;;;;;;;;;;4984218;28;20048;-74
2022/09/22 13:03:23;;;;;;;3.10;1.98;;;;;;;;;;5011265;28;20068;-74
2022/09/22 13:05:48;;;;;;;1.83;1.70;;;;;;;;;;5013262;28;20049;-62
2022/09/22 13:08:37;;;;;;;1.90;1.80;;;;;;;;;;4996142;28;20100;-61
2022/09/22 13:11:04;;;;;;;2.50;2.30;;;;;;;;;;4976786;28;20054;-61
2022/09/22 13:13:30;;;;;;;2.45;2.10;;;;;;;;;;5013485;28;20065;-78
2022/09/22 13:15:56;;;;;;;2.08;1.90;;;;;;;;;;5013946;28;20088;-78
2022/09/22 13:18:30;;;;;;;2.15;1.98;;;;;;;;;;5013841;28;20370;-77
2022/09/22 13:20:56;;;;;;;3.60;2.33;;;;;;;;;;5013033;28;20033;-77
2022/09/22 13:23:22;;;;;;;2.35;2.15;;;;;;;;;;4979984;28;20061;-77
2022/09/22 13:25:50;;;;;;;2.38;2.08;;;;;;;;;;5013758;28;20053;-77
2022/09/22 13:28:17;;;;;;;4.68;2.97;;;;;;;;;;4996164;28;20080;-77
2022/09/22 13:30:43;;;;;;;3.30;3.00;;;;;;;;;;5012750;28;20057;-78
2022/09/22 13:33:23;;;;;;;2.92;2.10;;;;;;;;;;5012639;28;20022;-77
2022/09/22 13:36:02;;;;;;;2.58;2.38;;;;;;;;;;5012703;28;20037;-77
2022/09/22 13:38:28;;;;;;;3.50;2.95;;;;;;;;;;5012487;28;20048;-77
2022/09/22 13:40:53;;;;;;;5.25;3.78;;;;;;;;;;5012878;28;20458;-78
2022/09/22 13:43:27;;;;;;;5.63;3.67;;;;;;;;;;5011921;28;20022;-78
2022/09/22 13:45:55;;;;;;;5.55;3.53;;;;;;;;;;5012007;28;20041;-77
2022/09/22 13:48:21;;;;;;;3.75;3.45;;;;;;;;;;4993900;28;20057;-78
2022/09/22 13:50:51;;;;;;;4.40;3.40;;;;;;;;;;5012373;28;20084;-77
2022/09/22 13:53:17;;;;;;;;;;;;;;;;;;5011651;28;20040;-78
2022/09/22 13:55:46;;;;;;;4.25;3.85;;;;;;;;;;5012514;28;20343;-78
2022/09/22 13:58:13;;;;;;;7.15;6.65;;;;;;;;;;5012345;28;20108;-78
2022/09/22 14:00:43;;;;;;;3.75;3.45;;;;;;;;;;5012287;28;20080;-78
2022/09/22 14:03:16;;;;;;;4.32;4.03;;;;;;;;;;5012842;28;20393;-78
2022/09/22 14:05:41;;;;;;;4.05;2.88;;;;;;;;;;5013051;28;20026;-77
2022/09/22 14:08:10;;;;;;;2.83;2.63;;;;;;;;;;5013490;28;20033;-78
2022/09/22 14:10:36;;;;;;;4.70;4.10;;;;;;;;;;4987923;28;20136;-78
2022/09/22 14:13:02;;;;;;;26.83;14.93;;;;;;;;;;5009707;28;20105;-78
2022/09/22 14:15:33;;;;;;;33.47;16.17;;;;;;;;;;5009288;28;20180;-78
2022/09/22 14:18:01;;;;;;;5.95;4.53;;;;;;;;;;5009678;28;20042;-78
2022/09/22 14:20:26;;;;;;;4.32;4.03;;;;;;;;;;4993175;28;20593;-76
2022/09/22 14:22:52;;;;;;;5.65;4.57;;;;;;;;;;5010649;28;20026;-76
2022/09/22 14:25:21;;;;;;;7.20;5.47;;;;;;;;;;5012610;28;20014;-77
2022/09/22 14:27:54;;;;;;;2.00;1.83;;;;;;;;;;5012751;28;20030;-76
2022/09/22 14:30:20;;;;;;;2.80;2.35;;;;;;;;;;5011343;28;20037;-76
2022/09/22 14:32:56;;;;;;;21.25;12.68;;;;;;;;;;5005903;28;20448;-77
2022/09/22 14:35:34;;;;;;;6.05;5.45;;;;;;;;;;5012723;28;20025;-76
2022/09/22 14:38:01;;;;;;;3.33;1.98;;;;;;;;;;5016575;28;20041;-77
2022/09/22 14:40:27;;;;;;;6.03;4.30;;;;;;;;;;5016905;28;20025;-78
2022/09/22 14:43:10;;;;;;;3.03;2.72;;;;;;;;;;5016990;28;20034;-68
2022/09/22 14:45:36;;;;;;;9.15;5.63;;;;;;;;;;5017097;28;20030;-69
2022/09/22 14:48:09;;;;;;;6.10;3.90;;;;;;;;;;5016754;28;20050;-69
2022/09/22 14:50:45;;;;;;;2.42;2.22;;;;;;;;;;5016592;28;20111;-69
2022/09/22 14:53:15;;;;;;;3.70;2.28;;;;;;;;;;5016393;28;20026;-75
2022/09/22 14:55:44;;;;;;;3.67;2.40;;;;;;;;;;5016722;28;20041;-76
2022/09/22 14:58:23;;;;;;;2.55;1.48;;;;;;;;;;5016391;28;20041;-76